Hlavní strana
METAR-TAF:

METAR-TAF

Letiště :

Isbell Field

Fort Payne, Alabama, Spojené státy americké

zeměpisná šířka: 34-28-25N, zeměpisná délka: 085-43-17W, výška: 267 m

Aktuální stav počasí

Zpráva byla vytvořena před 26 minutami, v 10:35 UTC
Severoseverovýchodní vítr 3 kt
Teplota 18°C
Vlhkost vzduchu 100%
Tlak 1021 hPa
Viditelnost: 11.3 km
Jasno
kouřmo

METAR: K4A9 241035Z AUTO 02003KT 7SM BR CLR 18/18 A3015 RMK AO2 T01850182

Čas: 06:01 (11:01 UTC)


TAF: chybějící

Stav a předpovědi počasí z více než 4 000 letišť (zprávy METAR a TAF).

Červené a žluté tečky na mapě představují dostupné meteorologické stanice.

Když kurzor umístíte na tečku, zobrazí se název stanice.

Pak kliknutím zobrazíte stav a předpověď počasí.

Chcete-li změnit mapu, kliknutím na zelené tlačítko se znaménkem +mapu přiblížíte, kliknutím na zelené tlačítko se znaménkem – mapu oddálíte a kliknutím na zelené šipky přejdete na sousední mapy.


METAR-TAF: